sensor_id;sensor_type;location;lat;lon;timestamp;P1;durP1;ratioP1;P2;durP2;ratioP2
44116;SDS011;29781;49.480;8.512;2023-08-31T00:01:39;3.08;;;2.30;;
44116;SDS011;29781;49.480;8.512;2023-08-31T00:04:05;2.85;;;2.50;;
44116;SDS011;29781;49.480;8.512;2023-08-31T00:06:39;5.53;;;2.60;;
44116;SDS011;29781;49.480;8.512;2023-08-31T00:09:05;4.63;;;2.80;;
44116;SDS011;29781;49.480;8.512;2023-08-31T00:11:34;3.92;;;2.63;;
44116;SDS011;29781;49.480;8.512;2023-08-31T00:14:00;3.58;;;2.30;;
44116;SDS011;29781;49.480;8.512;2023-08-31T00:16:26;3.50;;;2.70;;
44116;SDS011;29781;49.480;8.512;2023-08-31T00:18:52;3.55;;;2.53;;
44116;SDS011;29781;49.480;8.512;2023-08-31T00:21:18;2.60;;;2.40;;
44116;SDS011;29781;49.480;8.512;2023-08-31T00:23:43;4.40;;;2.63;;
44116;SDS011;29781;49.480;8.512;2023-08-31T00:26:09;3.97;;;2.60;;
44116;SDS011;29781;49.480;8.512;2023-08-31T00:28:35;4.45;;;2.55;;
44116;SDS011;29781;49.480;8.512;2023-08-31T00:31:01;3.50;;;2.47;;
44116;SDS011;29781;49.480;8.512;2023-08-31T00:33:28;3.65;;;2.55;;
44116;SDS011;29781;49.480;8.512;2023-08-31T00:35:54;4.07;;;2.60;;
44116;SDS011;29781;49.480;8.512;2023-08-31T00:38:21;7.75;;;3.00;;
44116;SDS011;29781;49.480;8.512;2023-08-31T00:40:46;5.68;;;2.38;;
44116;SDS011;29781;49.480;8.512;2023-08-31T00:43:15;6.50;;;2.70;;
44116;SDS011;29781;49.480;8.512;2023-08-31T00:45:40;3.97;;;2.42;;
44116;SDS011;29781;49.480;8.512;2023-08-31T00:48:07;4.70;;;2.28;;
44116;SDS011;29781;49.480;8.512;2023-08-31T00:50:33;7.68;;;2.50;;
44116;SDS011;29781;49.480;8.512;2023-08-31T00:52:59;3.28;;;2.40;;
44116;SDS011;29781;49.480;8.512;2023-08-31T00:55:24;3.08;;;2.53;;
44116;SDS011;29781;49.480;8.512;2023-08-31T00:57:51;3.42;;;2.47;;
44116;SDS011;29781;49.480;8.512;2023-08-31T01:00:16;5.03;;;2.55;;
44116;SDS011;29781;49.480;8.512;2023-08-31T01:02:46;3.67;;;2.72;;
44116;SDS011;29781;49.480;8.512;2023-08-31T01:08:25;5.35;;;2.72;;
44116;SDS011;29781;49.480;8.512;2023-08-31T01:13:53;3.20;;;2.83;;
44116;SDS011;29781;49.480;8.512;2023-08-31T01:16:26;3.55;;;2.80;;
44116;SDS011;29781;49.480;8.512;2023-08-31T01:18:53;3.90;;;3.08;;
44116;SDS011;29781;49.480;8.512;2023-08-31T01:21:21;5.57;;;3.20;;
44116;SDS011;29781;49.480;8.512;2023-08-31T01:23:53;5.25;;;3.33;;
44116;SDS011;29781;49.480;8.512;2023-08-31T01:26:20;4.57;;;3.08;;
44116;SDS011;29781;49.480;8.512;2023-08-31T01:28:47;4.50;;;3.30;;
44116;SDS011;29781;49.480;8.512;2023-08-31T01:31:13;3.97;;;3.03;;
44116;SDS011;29781;49.480;8.512;2023-08-31T01:33:40;4.53;;;3.33;;
44116;SDS011;29781;49.480;8.512;2023-08-31T01:36:07;4.07;;;3.10;;
44116;SDS011;29781;49.480;8.512;2023-08-31T01:38:45;4.82;;;3.00;;
44116;SDS011;29781;49.480;8.512;2023-08-31T01:41:16;5.20;;;3.45;;
44116;SDS011;29781;49.480;8.512;2023-08-31T01:43:44;6.43;;;3.60;;
44116;SDS011;29781;49.480;8.512;2023-08-31T01:46:11;5.65;;;3.17;;
44116;SDS011;29781;49.480;8.512;2023-08-31T01:48:38;4.70;;;3.38;;
44116;SDS011;29781;49.480;8.512;2023-08-31T01:51:05;4.50;;;3.55;;
44116;SDS011;29781;49.480;8.512;2023-08-31T01:53:32;3.70;;;3.40;;
44116;SDS011;29781;49.480;8.512;2023-08-31T01:55:57;6.85;;;3.90;;
44116;SDS011;29781;49.480;8.512;2023-08-31T01:58:23;6.57;;;4.00;;
44116;SDS011;29781;49.480;8.512;2023-08-31T02:00:48;9.30;;;4.18;;
44116;SDS011;29781;49.480;8.512;2023-08-31T02:03:14;7.18;;;4.40;;
44116;SDS011;29781;49.480;8.512;2023-08-31T02:05:39;6.20;;;4.45;;
44116;SDS011;29781;49.480;8.512;2023-08-31T02:08:05;7.93;;;4.20;;
44116;SDS011;29781;49.480;8.512;2023-08-31T02:10:30;4.65;;;4.15;;
44116;SDS011;29781;49.480;8.512;2023-08-31T02:12:56;7.65;;;4.63;;
44116;SDS011;29781;49.480;8.512;2023-08-31T02:15:21;4.97;;;3.83;;
44116;SDS011;29781;49.480;8.512;2023-08-31T02:17:47;5.85;;;4.85;;
44116;SDS011;29781;49.480;8.512;2023-08-31T02:20:13;5.30;;;4.80;;
44116;SDS011;29781;49.480;8.512;2023-08-31T02:22:39;6.03;;;4.95;;
44116;SDS011;29781;49.480;8.512;2023-08-31T02:25:04;7.95;;;4.50;;
44116;SDS011;29781;49.480;8.512;2023-08-31T02:27:30;5.05;;;4.30;;
44116;SDS011;29781;49.480;8.512;2023-08-31T02:29:56;7.63;;;4.50;;
44116;SDS011;29781;49.480;8.512;2023-08-31T02:32:22;7.53;;;5.10;;
44116;SDS011;29781;49.480;8.512;2023-08-31T02:34:48;6.57;;;4.30;;
44116;SDS011;29781;49.480;8.512;2023-08-31T02:37:14;7.45;;;4.30;;
44116;SDS011;29781;49.480;8.512;2023-08-31T02:39:39;6.78;;;4.53;;
44116;SDS011;29781;49.480;8.512;2023-08-31T02:42:05;8.27;;;4.90;;
44116;SDS011;29781;49.480;8.512;2023-08-31T02:44:31;7.85;;;4.50;;
44116;SDS011;29781;49.480;8.512;2023-08-31T02:46:57;5.70;;;4.68;;
44116;SDS011;29781;49.480;8.512;2023-08-31T02:49:22;6.05;;;4.40;;
44116;SDS011;29781;49.480;8.512;2023-08-31T02:51:47;5.18;;;4.35;;
44116;SDS011;29781;49.480;8.512;2023-08-31T02:54:14;5.55;;;4.47;;
44116;SDS011;29781;49.480;8.512;2023-08-31T02:56:40;10.60;;;6.13;;
44116;SDS011;29781;49.480;8.512;2023-08-31T02:59:05;5.68;;;4.93;;
44116;SDS011;29781;49.480;8.512;2023-08-31T03:01:31;8.30;;;4.90;;
44116;SDS011;29781;49.480;8.512;2023-08-31T03:03:56;6.63;;;4.80;;
44116;SDS011;29781;49.480;8.512;2023-08-31T03:06:22;6.50;;;4.93;;
44116;SDS011;29781;49.480;8.512;2023-08-31T03:08:47;9.32;;;4.88;;
44116;SDS011;29781;49.480;8.512;2023-08-31T03:11:13;6.15;;;4.60;;
44116;SDS011;29781;49.480;8.512;2023-08-31T03:13:41;5.75;;;4.75;;
44116;SDS011;29781;49.480;8.512;2023-08-31T03:16:07;5.57;;;4.38;;
44116;SDS011;29781;49.480;8.512;2023-08-31T03:18:32;6.07;;;4.88;;
44116;SDS011;29781;49.480;8.512;2023-08-31T03:20:58;5.65;;;4.90;;
44116;SDS011;29781;49.480;8.512;2023-08-31T03:23:24;4.82;;;4.28;;
44116;SDS011;29781;49.480;8.512;2023-08-31T03:25:50;7.47;;;5.00;;
44116;SDS011;29781;49.480;8.512;2023-08-31T03:28:16;7.10;;;4.75;;
44116;SDS011;29781;49.480;8.512;2023-08-31T03:30:42;7.60;;;4.18;;
44116;SDS011;29781;49.480;8.512;2023-08-31T03:33:10;5.28;;;4.25;;
44116;SDS011;29781;49.480;8.512;2023-08-31T03:35:36;8.30;;;4.20;;
44116;SDS011;29781;49.480;8.512;2023-08-31T03:38:01;9.02;;;4.80;;
44116;SDS011;29781;49.480;8.512;2023-08-31T03:40:27;5.88;;;4.90;;
44116;SDS011;29781;49.480;8.512;2023-08-31T03:42:52;5.70;;;4.80;;
44116;SDS011;29781;49.480;8.512;2023-08-31T03:45:19;6.45;;;4.93;;
44116;SDS011;29781;49.480;8.512;2023-08-31T03:47:45;8.93;;;4.50;;
44116;SDS011;29781;49.480;8.512;2023-08-31T03:50:10;7.28;;;5.43;;
44116;SDS011;29781;49.480;8.512;2023-08-31T03:52:36;8.68;;;4.90;;
44116;SDS011;29781;49.480;8.512;2023-08-31T03:55:02;5.63;;;4.75;;
44116;SDS011;29781;49.480;8.512;2023-08-31T03:57:27;6.70;;;5.40;;
44116;SDS011;29781;49.480;8.512;2023-08-31T03:59:53;6.85;;;5.55;;
44116;SDS011;29781;49.480;8.512;2023-08-31T04:02:18;6.25;;;5.28;;
44116;SDS011;29781;49.480;8.512;2023-08-31T04:04:44;6.53;;;5.63;;
44116;SDS011;29781;49.480;8.512;2023-08-31T04:07:09;5.82;;;5.22;;
44116;SDS011;29781;49.480;8.512;2023-08-31T04:09:35;8.40;;;5.57;;
44116;SDS011;29781;49.480;8.512;2023-08-31T04:12:00;7.00;;;5.28;;
44116;SDS011;29781;49.480;8.512;2023-08-31T04:14:26;10.35;;;5.40;;
44116;SDS011;29781;49.480;8.512;2023-08-31T04:16:52;7.05;;;5.30;;
44116;SDS011;29781;49.480;8.512;2023-08-31T04:19:19;6.57;;;5.10;;
44116;SDS011;29781;49.480;8.512;2023-08-31T04:21:44;6.10;;;5.20;;
44116;SDS011;29781;49.480;8.512;2023-08-31T04:24:10;8.60;;;4.63;;
44116;SDS011;29781;49.480;8.512;2023-08-31T04:26:35;5.93;;;4.93;;
44116;SDS011;29781;49.480;8.512;2023-08-31T04:29:02;12.30;;;5.35;;
44116;SDS011;29781;49.480;8.512;2023-08-31T04:31:30;7.40;;;5.60;;
44116;SDS011;29781;49.480;8.512;2023-08-31T04:33:58;8.10;;;5.35;;
44116;SDS011;29781;49.480;8.512;2023-08-31T04:36:24;6.32;;;5.05;;
44116;SDS011;29781;49.480;8.512;2023-08-31T04:38:52;7.22;;;5.32;;
44116;SDS011;29781;49.480;8.512;2023-08-31T04:41:18;7.07;;;5.30;;
44116;SDS011;29781;49.480;8.512;2023-08-31T04:43:44;9.15;;;5.82;;
44116;SDS011;29781;49.480;8.512;2023-08-31T04:46:09;8.18;;;5.65;;
44116;SDS011;29781;49.480;8.512;2023-08-31T04:48:35;11.57;;;5.80;;
44116;SDS011;29781;49.480;8.512;2023-08-31T04:51:01;7.63;;;5.97;;
44116;SDS011;29781;49.480;8.512;2023-08-31T04:53:28;9.25;;;5.35;;
44116;SDS011;29781;49.480;8.512;2023-08-31T04:55:55;8.68;;;5.10;;
44116;SDS011;29781;49.480;8.512;2023-08-31T04:58:20;6.25;;;5.32;;
44116;SDS011;29781;49.480;8.512;2023-08-31T05:00:46;7.93;;;5.45;;
44116;SDS011;29781;49.480;8.512;2023-08-31T05:03:12;9.60;;;5.30;;
44116;SDS011;29781;49.480;8.512;2023-08-31T05:05:38;8.25;;;5.25;;
44116;SDS011;29781;49.480;8.512;2023-08-31T05:08:03;7.85;;;5.22;;
44116;SDS011;29781;49.480;8.512;2023-08-31T05:10:29;8.30;;;5.50;;
44116;SDS011;29781;49.480;8.512;2023-08-31T05:12:55;7.68;;;5.32;;
44116;SDS011;29781;49.480;8.512;2023-08-31T05:15:20;7.38;;;5.00;;
44116;SDS011;29781;49.480;8.512;2023-08-31T05:17:46;8.10;;;5.40;;
44116;SDS011;29781;49.480;8.512;2023-08-31T05:20:13;9.82;;;5.07;;
44116;SDS011;29781;49.480;8.512;2023-08-31T05:22:39;6.85;;;4.97;;
44116;SDS011;29781;49.480;8.512;2023-08-31T05:25:04;8.07;;;4.40;;
44116;SDS011;29781;49.480;8.512;2023-08-31T05:27:30;6.32;;;4.55;;
44116;SDS011;29781;49.480;8.512;2023-08-31T05:29:56;7.57;;;4.45;;
44116;SDS011;29781;49.480;8.512;2023-08-31T05:32:21;8.93;;;4.78;;
44116;SDS011;29781;49.480;8.512;2023-08-31T05:34:47;7.95;;;4.60;;
44116;SDS011;29781;49.480;8.512;2023-08-31T05:37:12;8.93;;;4.20;;
44116;SDS011;29781;49.480;8.512;2023-08-31T05:39:39;9.25;;;4.75;;
44116;SDS011;29781;49.480;8.512;2023-08-31T05:42:05;8.20;;;4.18;;
44116;SDS011;29781;49.480;8.512;2023-08-31T05:44:30;7.00;;;4.03;;
44116;SDS011;29781;49.480;8.512;2023-08-31T05:46:56;5.88;;;3.67;;
44116;SDS011;29781;49.480;8.512;2023-08-31T05:49:21;8.77;;;4.30;;
44116;SDS011;29781;49.480;8.512;2023-08-31T05:51:47;4.38;;;3.97;;
44116;SDS011;29781;49.480;8.512;2023-08-31T05:54:12;8.90;;;3.63;;
44116;SDS011;29781;49.480;8.512;2023-08-31T05:56:38;4.78;;;3.78;;
44116;SDS011;29781;49.480;8.512;2023-08-31T05:59:05;9.55;;;3.70;;
44116;SDS011;29781;49.480;8.512;2023-08-31T06:01:31;7.78;;;3.90;;
44116;SDS011;29781;49.480;8.512;2023-08-31T06:03:57;5.13;;;3.97;;
44116;SDS011;29781;49.480;8.512;2023-08-31T06:06:22;5.07;;;4.03;;
44116;SDS011;29781;49.480;8.512;2023-08-31T06:08:48;9.60;;;3.72;;
44116;SDS011;29781;49.480;8.512;2023-08-31T06:11:14;7.40;;;4.22;;
44116;SDS011;29781;49.480;8.512;2023-08-31T06:13:40;6.32;;;4.13;;
44116;SDS011;29781;49.480;8.512;2023-08-31T06:16:06;9.32;;;4.07;;
44116;SDS011;29781;49.480;8.512;2023-08-31T06:18:32;6.82;;;3.97;;
44116;SDS011;29781;49.480;8.512;2023-08-31T06:20:57;11.73;;;6.85;;
44116;SDS011;29781;49.480;8.512;2023-08-31T06:23:23;5.85;;;4.20;;
44116;SDS011;29781;49.480;8.512;2023-08-31T06:25:48;8.32;;;4.00;;
44116;SDS011;29781;49.480;8.512;2023-08-31T06:28:14;7.07;;;4.25;;
44116;SDS011;29781;49.480;8.512;2023-08-31T06:30:40;6.30;;;4.38;;
44116;SDS011;29781;49.480;8.512;2023-08-31T06:33:11;11.52;;;5.07;;
44116;SDS011;29781;49.480;8.512;2023-08-31T06:35:37;5.90;;;4.38;;
44116;SDS011;29781;49.480;8.512;2023-08-31T06:38:02;6.00;;;4.72;;
44116;SDS011;29781;49.480;8.512;2023-08-31T06:40:28;5.88;;;4.40;;
44116;SDS011;29781;49.480;8.512;2023-08-31T06:42:54;7.22;;;4.38;;
44116;SDS011;29781;49.480;8.512;2023-08-31T06:45:19;6.95;;;4.10;;
44116;SDS011;29781;49.480;8.512;2023-08-31T06:47:45;6.43;;;4.10;;
44116;SDS011;29781;49.480;8.512;2023-08-31T06:50:10;6.25;;;4.05;;
44116;SDS011;29781;49.480;8.512;2023-08-31T06:52:36;6.00;;;4.13;;
44116;SDS011;29781;49.480;8.512;2023-08-31T06:55:01;3.85;;;3.42;;
44116;SDS011;29781;49.480;8.512;2023-08-31T06:57:28;11.45;;;4.53;;
44116;SDS011;29781;49.480;8.512;2023-08-31T06:59:53;5.15;;;3.90;;
44116;SDS011;29781;49.480;8.512;2023-08-31T07:02:19;7.85;;;3.78;;
44116;SDS011;29781;49.480;8.512;2023-08-31T07:04:47;10.30;;;3.90;;
44116;SDS011;29781;49.480;8.512;2023-08-31T07:07:13;3.88;;;3.45;;
44116;SDS011;29781;49.480;8.512;2023-08-31T07:09:39;6.47;;;3.67;;
44116;SDS011;29781;49.480;8.512;2023-08-31T07:12:06;7.43;;;3.40;;
44116;SDS011;29781;49.480;8.512;2023-08-31T07:14:32;4.78;;;3.25;;
44116;SDS011;29781;49.480;8.512;2023-08-31T07:16:58;5.60;;;3.60;;
44116;SDS011;29781;49.480;8.512;2023-08-31T07:19:23;8.30;;;3.80;;
44116;SDS011;29781;49.480;8.512;2023-08-31T07:21:49;9.13;;;3.45;;
44116;SDS011;29781;49.480;8.512;2023-08-31T07:24:14;5.38;;;3.33;;
44116;SDS011;29781;49.480;8.512;2023-08-31T07:26:40;7.70;;;3.80;;
44116;SDS011;29781;49.480;8.512;2023-08-31T07:29:05;4.38;;;3.38;;
44116;SDS011;29781;49.480;8.512;2023-08-31T07:31:31;5.57;;;3.08;;
44116;SDS011;29781;49.480;8.512;2023-08-31T07:33:57;6.32;;;3.30;;
44116;SDS011;29781;49.480;8.512;2023-08-31T07:36:23;7.38;;;3.38;;
44116;SDS011;29781;49.480;8.512;2023-08-31T07:38:49;4.18;;;3.60;;
44116;SDS011;29781;49.480;8.512;2023-08-31T07:41:15;6.88;;;4.28;;
44116;SDS011;29781;49.480;8.512;2023-08-31T07:43:40;6.80;;;3.45;;
44116;SDS011;29781;49.480;8.512;2023-08-31T07:46:06;4.65;;;2.95;;
44116;SDS011;29781;49.480;8.512;2023-08-31T07:48:31;5.22;;;2.75;;
44116;SDS011;29781;49.480;8.512;2023-08-31T07:50:57;6.32;;;3.70;;
44116;SDS011;29781;49.480;8.512;2023-08-31T07:53:23;5.13;;;3.13;;
44116;SDS011;29781;49.480;8.512;2023-08-31T07:55:52;3.17;;;2.70;;
44116;SDS011;29781;49.480;8.512;2023-08-31T07:58:21;4.25;;;3.00;;
44116;SDS011;29781;49.480;8.512;2023-08-31T08:00:48;4.63;;;2.80;;
44116;SDS011;29781;49.480;8.512;2023-08-31T08:03:14;3.63;;;2.72;;
44116;SDS011;29781;49.480;8.512;2023-08-31T08:05:39;5.47;;;2.83;;
44116;SDS011;29781;49.480;8.512;2023-08-31T08:08:06;3.78;;;2.53;;
44116;SDS011;29781;49.480;8.512;2023-08-31T08:10:31;6.30;;;2.70;;
44116;SDS011;29781;49.480;8.512;2023-08-31T08:12:57;5.47;;;2.63;;
44116;SDS011;29781;49.480;8.512;2023-08-31T08:15:23;5.45;;;2.75;;
44116;SDS011;29781;49.480;8.512;2023-08-31T08:17:49;6.57;;;2.33;;
44116;SDS011;29781;49.480;8.512;2023-08-31T08:20:15;4.80;;;2.20;;
44116;SDS011;29781;49.480;8.512;2023-08-31T08:22:40;4.93;;;2.50;;
44116;SDS011;29781;49.480;8.512;2023-08-31T08:25:06;4.88;;;2.38;;
44116;SDS011;29781;49.480;8.512;2023-08-31T08:27:32;4.85;;;2.08;;
44116;SDS011;29781;49.480;8.512;2023-08-31T08:29:58;5.57;;;2.40;;
44116;SDS011;29781;49.480;8.512;2023-08-31T08:32:24;7.03;;;1.85;;
44116;SDS011;29781;49.480;8.512;2023-08-31T08:34:50;8.55;;;2.00;;
44116;SDS011;29781;49.480;8.512;2023-08-31T08:37:16;3.42;;;2.10;;
44116;SDS011;29781;49.480;8.512;2023-08-31T08:39:42;6.60;;;2.13;;
44116;SDS011;29781;49.480;8.512;2023-08-31T08:42:08;5.07;;;2.25;;
44116;SDS011;29781;49.480;8.512;2023-08-31T08:44:35;4.50;;;1.83;;
44116;SDS011;29781;49.480;8.512;2023-08-31T08:47:01;4.32;;;1.77;;
44116;SDS011;29781;49.480;8.512;2023-08-31T08:49:36;5.25;;;1.85;;
44116;SDS011;29781;49.480;8.512;2023-08-31T08:52:02;3.88;;;1.70;;
44116;SDS011;29781;49.480;8.512;2023-08-31T08:54:28;5.18;;;2.28;;
44116;SDS011;29781;49.480;8.512;2023-08-31T08:56:53;5.03;;;2.00;;
44116;SDS011;29781;49.480;8.512;2023-08-31T08:59:19;7.03;;;2.42;;
44116;SDS011;29781;49.480;8.512;2023-08-31T09:01:45;3.17;;;1.73;;
44116;SDS011;29781;49.480;8.512;2023-08-31T09:04:11;4.32;;;2.10;;
44116;SDS011;29781;49.480;8.512;2023-08-31T09:06:36;7.45;;;2.25;;
44116;SDS011;29781;49.480;8.512;2023-08-31T09:09:02;5.80;;;2.22;;
44116;SDS011;29781;49.480;8.512;2023-08-31T09:11:28;6.97;;;2.20;;
44116;SDS011;29781;49.480;8.512;2023-08-31T09:13:54;5.05;;;2.08;;
44116;SDS011;29781;49.480;8.512;2023-08-31T09:16:23;4.03;;;1.70;;
44116;SDS011;29781;49.480;8.512;2023-08-31T09:18:53;3.00;;;1.90;;
44116;SDS011;29781;49.480;8.512;2023-08-31T09:21:22;6.53;;;2.20;;
44116;SDS011;29781;49.480;8.512;2023-08-31T09:23:59;7.70;;;2.00;;
44116;SDS011;29781;49.480;8.512;2023-08-31T09:26:25;5.10;;;2.08;;
44116;SDS011;29781;49.480;8.512;2023-08-31T09:28:50;5.97;;;1.85;;
44116;SDS011;29781;49.480;8.512;2023-08-31T09:31:17;4.55;;;1.95;;
44116;SDS011;29781;49.480;8.512;2023-08-31T09:33:52;6.38;;;1.98;;
44116;SDS011;29781;49.480;8.512;2023-08-31T09:36:18;7.32;;;1.92;;
44116;SDS011;29781;49.480;8.512;2023-08-31T09:38:45;4.78;;;1.75;;
44116;SDS011;29781;49.480;8.512;2023-08-31T09:41:11;5.18;;;1.67;;
44116;SDS011;29781;49.480;8.512;2023-08-31T09:43:36;3.25;;;1.88;;
44116;SDS011;29781;49.480;8.512;2023-08-31T09:46:03;4.45;;;1.55;;
44116;SDS011;29781;49.480;8.512;2023-08-31T09:48:29;3.38;;;1.45;;
44116;SDS011;29781;49.480;8.512;2023-08-31T09:50:56;5.40;;;1.63;;
44116;SDS011;29781;49.480;8.512;2023-08-31T09:53:23;3.75;;;1.90;;
44116;SDS011;29781;49.480;8.512;2023-08-31T09:55:50;6.03;;;1.65;;
44116;SDS011;29781;49.480;8.512;2023-08-31T09:58:20;2.72;;;1.60;;
44116;SDS011;29781;49.480;8.512;2023-08-31T10:00:46;2.67;;;1.58;;
44116;SDS011;29781;49.480;8.512;2023-08-31T10:03:14;5.82;;;2.10;;
44116;SDS011;29781;49.480;8.512;2023-08-31T10:05:41;5.10;;;1.63;;
44116;SDS011;29781;49.480;8.512;2023-08-31T10:08:08;3.22;;;1.67;;
44116;SDS011;29781;49.480;8.512;2023-08-31T10:10:34;3.03;;;1.38;;
44116;SDS011;29781;49.480;8.512;2023-08-31T10:13:00;2.58;;;1.73;;
44116;SDS011;29781;49.480;8.512;2023-08-31T10:15:31;5.40;;;1.55;;
44116;SDS011;29781;49.480;8.512;2023-08-31T10:18:01;3.10;;;1.85;;
44116;SDS011;29781;49.480;8.512;2023-08-31T10:20:27;2.95;;;2.00;;
44116;SDS011;29781;49.480;8.512;2023-08-31T10:22:56;2.78;;;1.50;;
44116;SDS011;29781;49.480;8.512;2023-08-31T10:25:23;2.78;;;1.50;;
44116;SDS011;29781;49.480;8.512;2023-08-31T10:27:48;2.55;;;1.58;;
44116;SDS011;29781;49.480;8.512;2023-08-31T10:30:24;2.65;;;1.75;;
44116;SDS011;29781;49.480;8.512;2023-08-31T10:35:41;2.75;;;1.60;;
44116;SDS011;29781;49.480;8.512;2023-08-31T10:38:13;3.05;;;1.50;;
44116;SDS011;29781;49.480;8.512;2023-08-31T10:40:39;3.30;;;1.80;;
44116;SDS011;29781;49.480;8.512;2023-08-31T10:43:14;2.00;;;1.30;;
44116;SDS011;29781;49.480;8.512;2023-08-31T10:45:44;1.88;;;1.60;;
44116;SDS011;29781;49.480;8.512;2023-08-31T10:48:10;2.50;;;1.55;;
44116;SDS011;29781;49.480;8.512;2023-08-31T10:50:41;3.22;;;1.55;;
44116;SDS011;29781;49.480;8.512;2023-08-31T10:53:08;3.88;;;1.80;;
44116;SDS011;29781;49.480;8.512;2023-08-31T10:55:34;2.15;;;1.50;;
44116;SDS011;29781;49.480;8.512;2023-08-31T10:58:16;3.40;;;1.60;;
44116;SDS011;29781;49.480;8.512;2023-08-31T11:00:45;5.78;;;1.65;;
44116;SDS011;29781;49.480;8.512;2023-08-31T11:03:13;3.42;;;1.42;;
44116;SDS011;29781;49.480;8.512;2023-08-31T11:05:50;2.92;;;1.63;;
44116;SDS011;29781;49.480;8.512;2023-08-31T11:08:19;2.70;;;1.73;;
44116;SDS011;29781;49.480;8.512;2023-08-31T11:10:48;2.72;;;1.63;;
44116;SDS011;29781;49.480;8.512;2023-08-31T11:13:21;4.50;;;1.70;;
44116;SDS011;29781;49.480;8.512;2023-08-31T11:15:48;1.55;;;1.42;;
44116;SDS011;29781;49.480;8.512;2023-08-31T11:18:13;4.55;;;2.08;;
44116;SDS011;29781;49.480;8.512;2023-08-31T11:20:42;2.55;;;1.40;;
44116;SDS011;29781;49.480;8.512;2023-08-31T11:23:09;4.72;;;1.67;;
44116;SDS011;29781;49.480;8.512;2023-08-31T11:25:35;5.15;;;1.33;;
44116;SDS011;29781;49.480;8.512;2023-08-31T11:28:01;5.00;;;1.88;;
44116;SDS011;29781;49.480;8.512;2023-08-31T11:30:30;3.65;;;1.55;;
44116;SDS011;29781;49.480;8.512;2023-08-31T11:32:58;4.35;;;1.80;;
44116;SDS011;29781;49.480;8.512;2023-08-31T11:35:33;3.83;;;1.70;;
44116;SDS011;29781;49.480;8.512;2023-08-31T11:38:01;3.45;;;1.60;;
44116;SDS011;29781;49.480;8.512;2023-08-31T11:40:28;6.00;;;1.90;;
44116;SDS011;29781;49.480;8.512;2023-08-31T11:42:54;3.17;;;1.80;;
44116;SDS011;29781;49.480;8.512;2023-08-31T11:45:19;5.90;;;1.92;;
44116;SDS011;29781;49.480;8.512;2023-08-31T11:47:47;4.07;;;1.80;;
44116;SDS011;29781;49.480;8.512;2023-08-31T11:50:13;2.92;;;1.48;;
44116;SDS011;29781;49.480;8.512;2023-08-31T11:52:41;7.22;;;1.77;;
44116;SDS011;29781;49.480;8.512;2023-08-31T11:55:14;5.25;;;1.63;;
44116;SDS011;29781;49.480;8.512;2023-08-31T11:57:47;4.70;;;2.08;;
44116;SDS011;29781;49.480;8.512;2023-08-31T12:00:17;5.75;;;1.90;;
44116;SDS011;29781;49.480;8.512;2023-08-31T12:02:45;5.15;;;1.50;;
44116;SDS011;29781;49.480;8.512;2023-08-31T12:05:13;4.80;;;1.90;;
44116;SDS011;29781;49.480;8.512;2023-08-31T12:07:40;6.65;;;1.98;;
44116;SDS011;29781;49.480;8.512;2023-08-31T12:10:07;4.93;;;1.95;;
44116;SDS011;29781;49.480;8.512;2023-08-31T12:12:34;4.20;;;2.00;;
44116;SDS011;29781;49.480;8.512;2023-08-31T12:15:01;6.07;;;2.00;;
44116;SDS011;29781;49.480;8.512;2023-08-31T12:17:28;3.83;;;1.95;;
44116;SDS011;29781;49.480;8.512;2023-08-31T12:20:01;5.88;;;1.75;;
44116;SDS011;29781;49.480;8.512;2023-08-31T12:22:31;9.90;;;2.00;;
44116;SDS011;29781;49.480;8.512;2023-08-31T12:24:59;7.93;;;2.25;;
44116;SDS011;29781;49.480;8.512;2023-08-31T12:27:25;8.48;;;2.13;;
44116;SDS011;29781;49.480;8.512;2023-08-31T12:29:51;6.40;;;1.92;;
44116;SDS011;29781;49.480;8.512;2023-08-31T12:32:16;4.47;;;1.90;;
44116;SDS011;29781;49.480;8.512;2023-08-31T12:34:43;7.03;;;2.13;;
44116;SDS011;29781;49.480;8.512;2023-08-31T12:37:09;6.20;;;2.38;;
44116;SDS011;29781;49.480;8.512;2023-08-31T12:39:37;6.07;;;2.00;;
44116;SDS011;29781;49.480;8.512;2023-08-31T12:42:02;4.25;;;1.90;;
44116;SDS011;29781;49.480;8.512;2023-08-31T12:44:29;4.57;;;1.70;;
44116;SDS011;29781;49.480;8.512;2023-08-31T12:46:54;5.13;;;2.05;;
44116;SDS011;29781;49.480;8.512;2023-08-31T12:49:20;5.20;;;1.83;;
44116;SDS011;29781;49.480;8.512;2023-08-31T12:51:46;4.03;;;1.92;;
44116;SDS011;29781;49.480;8.512;2023-08-31T12:54:12;7.13;;;2.10;;
44116;SDS011;29781;49.480;8.512;2023-08-31T12:56:41;5.75;;;1.80;;
44116;SDS011;29781;49.480;8.512;2023-08-31T12:59:06;7.38;;;2.05;;
44116;SDS011;29781;49.480;8.512;2023-08-31T13:01:32;4.13;;;2.17;;
44116;SDS011;29781;49.480;8.512;2023-08-31T13:03:58;5.78;;;2.53;;
44116;SDS011;29781;49.480;8.512;2023-08-31T13:06:24;5.20;;;1.95;;
44116;SDS011;29781;49.480;8.512;2023-08-31T13:08:51;4.63;;;2.03;;
44116;SDS011;29781;49.480;8.512;2023-08-31T13:11:17;6.65;;;2.22;;
44116;SDS011;29781;49.480;8.512;2023-08-31T13:13:48;6.05;;;1.85;;
44116;SDS011;29781;49.480;8.512;2023-08-31T13:16:16;6.70;;;2.00;;
44116;SDS011;29781;49.480;8.512;2023-08-31T13:18:41;8.43;;;2.45;;
44116;SDS011;29781;49.480;8.512;2023-08-31T13:21:07;7.60;;;2.47;;
44116;SDS011;29781;49.480;8.512;2023-08-31T13:23:38;5.93;;;1.85;;
44116;SDS011;29781;49.480;8.512;2023-08-31T13:26:04;8.32;;;2.42;;
44116;SDS011;29781;49.480;8.512;2023-08-31T13:28:29;7.15;;;2.38;;
44116;SDS011;29781;49.480;8.512;2023-08-31T13:30:55;4.65;;;2.00;;
44116;SDS011;29781;49.480;8.512;2023-08-31T13:33:22;4.93;;;1.85;;
44116;SDS011;29781;49.480;8.512;2023-08-31T13:35:56;8.05;;;2.00;;
44116;SDS011;29781;49.480;8.512;2023-08-31T13:38:23;6.18;;;2.05;;
44116;SDS011;29781;49.480;8.512;2023-08-31T13:40:53;7.70;;;1.90;;
44116;SDS011;29781;49.480;8.512;2023-08-31T13:43:20;5.50;;;2.13;;
44116;SDS011;29781;49.480;8.512;2023-08-31T13:45:45;2.58;;;1.70;;
44116;SDS011;29781;49.480;8.512;2023-08-31T13:48:11;4.35;;;2.15;;
44116;SDS011;29781;49.480;8.512;2023-08-31T13:50:37;4.45;;;2.15;;
44116;SDS011;29781;49.480;8.512;2023-08-31T13:53:02;8.10;;;2.28;;
44116;SDS011;29781;49.480;8.512;2023-08-31T13:55:28;6.57;;;1.83;;
44116;SDS011;29781;49.480;8.512;2023-08-31T13:57:54;7.65;;;1.85;;
44116;SDS011;29781;49.480;8.512;2023-08-31T14:00:19;7.07;;;2.25;;
44116;SDS011;29781;49.480;8.512;2023-08-31T14:02:45;5.55;;;2.42;;
44116;SDS011;29781;49.480;8.512;2023-08-31T14:05:13;4.43;;;1.95;;
44116;SDS011;29781;49.480;8.512;2023-08-31T14:07:39;5.55;;;2.03;;
44116;SDS011;29781;49.480;8.512;2023-08-31T14:10:05;5.75;;;1.98;;
44116;SDS011;29781;49.480;8.512;2023-08-31T14:12:32;7.47;;;2.40;;
44116;SDS011;29781;49.480;8.512;2023-08-31T14:14:58;7.00;;;2.53;;
44116;SDS011;29781;49.480;8.512;2023-08-31T14:17:25;6.50;;;1.90;;
44116;SDS011;29781;49.480;8.512;2023-08-31T14:19:51;13.25;;;2.15;;
44116;SDS011;29781;49.480;8.512;2023-08-31T14:22:16;6.68;;;2.20;;
44116;SDS011;29781;49.480;8.512;2023-08-31T14:24:42;4.05;;;1.70;;
44116;SDS011;29781;49.480;8.512;2023-08-31T14:27:07;7.50;;;2.55;;
44116;SDS011;29781;49.480;8.512;2023-08-31T14:29:33;7.68;;;2.20;;
44116;SDS011;29781;49.480;8.512;2023-08-31T14:31:59;6.85;;;2.55;;
44116;SDS011;29781;49.480;8.512;2023-08-31T14:34:31;6.43;;;2.20;;
44116;SDS011;29781;49.480;8.512;2023-08-31T14:36:57;4.15;;;2.05;;
44116;SDS011;29781;49.480;8.512;2023-08-31T14:39:24;5.95;;;2.30;;
44116;SDS011;29781;49.480;8.512;2023-08-31T14:41:54;4.70;;;2.37;;
44116;SDS011;29781;49.480;8.512;2023-08-31T14:44:21;7.20;;;2.45;;
44116;SDS011;29781;49.480;8.512;2023-08-31T14:46:47;5.45;;;1.92;;
44116;SDS011;29781;49.480;8.512;2023-08-31T14:49:18;4.07;;;2.08;;
44116;SDS011;29781;49.480;8.512;2023-08-31T14:51:47;7.60;;;2.58;;
44116;SDS011;29781;49.480;8.512;2023-08-31T14:54:12;5.15;;;2.15;;